Time;durP1;ratioP1;P1;durP2;ratioP2;P2;SDS_P1;SDS_P2;PMS_P1;PMS_P2;Temp;Humidity;BMP_temperature;BMP_pressure;BME280_temperature;BME280_humidity;BME280_pressure;Samples;Min_cycle;Max_cycle;Signal;HPM_P1;HPM_P2
2023/01/12 00:01:35;;;;;;;12.48;7.40;;;17.90;70.80;;;;;;5070364;28;20117;-22
2023/01/12 00:04:02;;;;;;;12.45;7.97;;;17.80;70.80;;;;;;5046640;28;20051;-11
2023/01/12 00:06:27;;;;;;;15.85;8.02;;;17.90;70.60;;;;;;5070262;28;20056;-12
2023/01/12 00:08:53;;;;;;;12.82;7.72;;;17.90;70.70;;;;;;5066125;28;20051;-11
2023/01/12 00:11:19;;;;;;;12.35;7.00;;;17.90;70.50;;;;;;5067715;28;20493;-17
2023/01/12 00:13:45;;;;;;;11.25;6.78;;;17.90;70.30;;;;;;5069799;28;20548;-11
2023/01/12 00:16:33;;;;;;;11.18;6.85;;;18.00;70.10;;;;;;5067827;28;20044;-12
2023/01/12 00:19:04;;;;;;;11.93;7.57;;;18.00;70.10;;;;;;5061249;28;20032;-11
2023/01/12 00:21:35;;;;;;;10.75;6.85;;;18.10;69.80;;;;;;5070172;28;20097;-11
2023/01/12 00:24:01;;;;;;;14.05;7.05;;;18.10;69.80;;;;;;5069745;28;20087;-12
2023/01/12 00:26:26;;;;;;;10.07;7.20;;;18.10;69.60;;;;;;5066287;28;20121;-12
2023/01/12 00:28:52;;;;;;;11.60;6.50;;;17.90;70.00;;;;;;5068649;28;20033;-12
2023/01/12 00:31:17;;;;;;;9.48;6.00;;;18.00;69.90;;;;;;5068646;28;20063;-11
2023/01/12 00:33:43;;;;;;;9.77;5.85;;;18.10;69.70;;;;;;5069012;28;20076;-11
2023/01/12 00:36:11;;;;;;;12.35;6.63;;;18.10;69.40;;;;;;5070098;28;20032;-11
2023/01/12 00:38:37;;;;;;;9.48;6.10;;;18.10;69.60;;;;;;5081396;28;20421;-11
2023/01/12 00:41:11;;;;;;;7.53;5.63;;;18.10;69.60;;;;;;5066148;28;20584;-11
2023/01/12 00:46:30;;;;;;;8.23;5.65;;;18.00;69.80;;;;;;5068597;28;20055;-11
2023/01/12 00:48:56;;;;;;;8.00;5.60;;;18.10;69.70;;;;;;5065278;28;20119;-12
2023/01/12 00:51:21;;;;;;;8.10;6.18;;;18.10;69.70;;;;;;5071544;28;20497;-11
2023/01/12 00:53:47;;;;;;;7.90;5.82;;;18.00;69.70;;;;;;5071324;28;20088;-11
2023/01/12 00:56:12;;;;;;;9.60;5.82;;;18.00;69.90;;;;;;5064880;28;20076;-11
2023/01/12 00:58:38;;;;;;;7.95;5.95;;;18.00;69.90;;;;;;5065847;28;20089;-16
2023/01/12 01:01:07;;;;;;;8.30;5.72;;;18.00;69.80;;;;;;5067288;28;20497;-11
2023/01/12 01:03:33;;;;;;;8.50;5.63;;;18.00;69.80;;;;;;5069989;28;20036;-27
2023/01/12 01:06:05;;;;;;;11.30;5.75;;;18.00;69.90;;;;;;5066824;28;20045;-28
2023/01/12 01:08:31;;;;;;;7.20;5.35;;;18.00;69.80;;;;;;5064594;28;20562;-24
2023/01/12 01:11:10;;;;;;;9.43;5.85;;;17.90;70.00;;;;;;5060036;28;20044;-24
2023/01/12 01:13:35;;;;;;;9.00;5.30;;;17.90;70.00;;;;;;5062455;28;20519;-26
2023/01/12 01:16:04;;;;;;;8.57;5.72;;;17.90;69.90;;;;;;5068672;28;20032;-25
2023/01/12 01:18:30;;;;;;;8.48;4.78;;;17.90;70.00;;;;;;5069620;28;20064;-27
2023/01/12 01:20:56;;;;;;;6.57;5.07;;;17.90;70.10;;;;;;5077657;28;20056;-25
2023/01/12 01:36:50;;;;;;;6.13;4.15;;;17.90;70.00;;;;;;5065112;28;20031;-24
2023/01/12 01:39:16;;;;;;;6.80;4.57;;;17.90;70.00;;;;;;5070741;28;20020;-23
2023/01/12 01:41:41;;;;;;;6.70;4.18;;;17.90;70.10;;;;;;5070832;28;20032;-27
2023/01/12 01:44:29;;;;;;;8.00;4.30;;;17.90;70.10;;;;;;5069181;28;20033;-23
2023/01/12 01:47:02;;;;;;;6.50;4.20;;;17.90;70.00;;;;;;5073769;28;20032;-23
2023/01/12 01:49:46;;;;;;;7.28;4.57;;;17.90;69.90;;;;;;5070067;28;21035;-24
2023/01/12 01:52:36;;;;;;;6.43;4.28;;;17.90;70.00;;;;;;5072082;28;20070;-27
2023/01/12 01:55:15;;;;;;;6.03;4.03;;;17.90;70.00;;;;;;5060624;28;20033;-24
2023/01/12 01:57:44;;;;;;;7.30;4.15;;;17.90;70.00;;;;;;5054675;28;20020;-25
2023/01/12 02:00:10;;;;;;;7.78;4.22;;;17.90;69.90;;;;;;5057217;28;20698;-26
2023/01/12 02:02:36;;;;;;;4.38;3.58;;;17.90;69.80;;;;;;5073737;28;20088;-24
2023/01/12 02:05:01;;;;;;;6.47;3.97;;;17.90;70.00;;;;;;5062448;28;20421;-25
2023/01/12 02:07:27;;;;;;;4.95;4.10;;;17.90;70.00;;;;;;5067947;28;20451;-24
2023/01/12 02:09:53;;;;;;;4.28;3.53;;;17.80;70.20;;;;;;5070478;28;20077;-25
2023/01/12 02:18:02;;;;;;;;;;;17.80;70.20;;;;;;5057000;28;20039;-24
2023/01/12 02:20:47;;;;;;;6.20;4.30;;;17.90;70.30;;;;;;5072865;28;19910;-24
2023/01/12 02:23:22;;;;;;;6.00;3.97;;;17.80;70.50;;;;;;5072888;28;20024;-25
2023/01/12 02:26:05;;;;;;;3.90;3.50;;;17.70;70.50;;;;;;5071054;28;21004;-27
2023/01/12 02:28:55;;;;;;;4.22;3.47;;;17.70;70.50;;;;;;5073151;28;22636;-26
2023/01/12 02:32:01;;;;;;;4.20;3.80;;;17.70;70.60;;;;;;5069981;28;20040;-30
2023/01/12 02:34:30;;;;;;;4.55;3.78;;;17.70;70.60;;;;;;5055250;28;20040;-30
2023/01/12 02:36:55;;;;;;;4.32;3.35;;;17.80;70.50;;;;;;5071465;28;20035;-23
2023/01/12 02:39:32;;;;;;;3.38;3.03;;;17.80;70.40;;;;;;5071274;28;20115;-28
2023/01/12 02:44:59;;;;;;;4.38;3.38;;;17.70;70.50;;;;;;5054839;28;20047;-30
2023/01/12 02:47:47;;;;;;;6.20;3.42;;;17.70;70.30;;;;;;5052861;28;20040;-25
2023/01/12 02:50:18;;;;;;;5.03;3.15;;;17.70;70.50;;;;;;5054873;28;20032;-25
2023/01/12 02:52:45;;;;;;;4.13;3.50;;;17.70;70.60;;;;;;5049903;28;20037;-28
2023/01/12 02:55:11;;;;;;;4.68;3.35;;;17.70;70.70;;;;;;5053447;28;20087;-24
2023/01/12 02:57:36;;;;;;;4.15;3.10;;;17.70;70.50;;;;;;5057533;28;20063;-25
2023/01/12 03:00:02;;;;;;;3.58;3.15;;;17.70;70.40;;;;;;5068805;28;20501;-24
2023/01/12 03:02:28;;;;;;;4.28;3.10;;;17.70;70.50;;;;;;5058006;28;20044;-24
2023/01/12 03:04:54;;;;;;;3.22;2.90;;;17.70;70.50;;;;;;5072769;28;20101;-35
2023/01/12 03:07:31;;;;;;;3.33;3.03;;;17.70;70.40;;;;;;5070236;28;20049;-25
2023/01/12 03:10:14;;;;;;;3.00;2.70;;;17.60;70.60;;;;;;5069589;28;20044;-24
2023/01/12 03:12:40;;;;;;;4.93;2.78;;;17.70;70.40;;;;;;5033964;28;21874;-23
2023/01/12 03:15:06;;;;;;;4.50;3.20;;;17.70;70.50;;;;;;5047911;28;20068;-30
2023/01/12 03:17:36;;;;;;;2.85;2.55;;;17.80;70.30;;;;;;5067845;28;20045;-24
2023/01/12 03:20:30;;;;;;;3.42;2.83;;;17.80;70.20;;;;;;5053434;28;20135;-24
2023/01/12 03:22:58;;;;;;;3.55;2.67;;;17.80;70.30;;;;;;5047480;28;20049;-25
2023/01/12 03:25:24;;;;;;;4.50;2.80;;;17.80;70.10;;;;;;5053695;28;20056;-25
2023/01/12 03:27:51;;;;;;;4.55;3.05;;;17.80;70.20;;;;;;5055743;28;20075;-23
2023/01/12 03:30:19;;;;;;;2.80;2.50;;;17.80;70.20;;;;;;5049426;28;20063;-25
2023/01/12 03:32:45;;;;;;;2.97;2.60;;;17.80;70.00;;;;;;5050184;28;20047;-26
2023/01/12 03:35:11;;;;;;;2.90;2.53;;;17.80;70.10;;;;;;5050378;28;20044;-25
2023/01/12 03:37:43;;;;;;;2.53;2.28;;;17.80;70.10;;;;;;5052136;28;20040;-24
2023/01/12 03:40:16;;;;;;;3.28;2.35;;;17.70;70.30;;;;;;5033596;28;20043;-25
2023/01/12 03:43:17;;;;;;;2.38;2.17;;;17.70;70.30;;;;;;5031542;28;20045;-27
2023/01/12 03:45:55;;;;;;;3.35;2.92;;;17.80;70.20;;;;;;5048307;28;20052;-28
2023/01/12 03:48:31;;;;;;;3.85;2.60;;;17.80;70.10;;;;;;5051688;28;20040;-24
2023/01/12 03:51:28;;;;;;;2.58;2.20;;;17.70;70.20;;;;;;5049148;28;20044;-25
2023/01/12 03:53:54;;;;;;;3.00;2.67;;;17.70;70.30;;;;;;5056888;28;20386;-28
2023/01/12 03:56:20;;;;;;;2.65;2.33;;;17.80;70.10;;;;;;5081408;28;20032;-24
2023/01/12 03:58:46;;;;;;;2.65;2.40;;;17.70;70.10;;;;;;5048902;28;20032;-26
2023/01/12 04:01:12;;;;;;;2.45;2.28;;;17.70;70.30;;;;;;5047971;28;20044;-25
2023/01/12 04:03:37;;;;;;;2.40;2.20;;;17.60;70.50;;;;;;5049102;28;20036;-25
2023/01/12 04:06:03;;;;;;;2.53;2.33;;;17.60;70.50;;;;;;5065306;28;20505;-29
2023/01/12 04:08:28;;;;;;;3.90;2.78;;;17.70;70.40;;;;;;5066937;28;20080;-23
2023/01/12 04:10:55;;;;;;;2.65;2.35;;;17.70;70.20;;;;;;5068877;28;20056;-28
2023/01/12 04:13:20;;;;;;;2.42;2.10;;;17.70;70.30;;;;;;5072624;28;20044;-24
2023/01/12 04:15:46;;;;;;;2.85;2.20;;;17.70;70.30;;;;;;5064956;28;20040;-28
2023/01/12 04:18:12;;;;;;;2.75;2.40;;;17.70;70.40;;;;;;5066831;28;20505;-24
2023/01/12 04:20:38;;;;;;;2.17;1.88;;;17.70;70.30;;;;;;5066760;28;20114;-25
2023/01/12 04:23:04;;;;;;;1.85;1.65;;;17.60;70.40;;;;;;5067098;28;20044;-25
2023/01/12 04:25:29;;;;;;;2.72;2.20;;;17.70;70.40;;;;;;5065936;28;20505;-24
2023/01/12 04:28:03;;;;;;;2.85;2.42;;;17.70;70.40;;;;;;5066703;28;20067;-27
2023/01/12 04:30:30;;;;;;;3.10;2.65;;;17.60;70.50;;;;;;5067562;28;20035;-24
2023/01/12 04:32:56;;;;;;;2.95;2.38;;;17.60;70.80;;;;;;5071559;28;20123;-29
2023/01/12 04:35:23;;;;;;;1.90;1.70;;;17.60;70.90;;;;;;5065022;28;20120;-23
2023/01/12 04:37:49;;;;;;;2.40;2.20;;;17.60;70.60;;;;;;5065742;28;20093;-24
2023/01/12 04:40:15;;;;;;;2.72;2.20;;;17.60;70.70;;;;;;5068814;28;20043;-25
2023/01/12 04:43:08;;;;;;;2.38;2.00;;;17.60;70.60;;;;;;5063063;28;20045;-24
2023/01/12 04:45:36;;;;;;;2.45;2.25;;;17.60;70.50;;;;;;5083094;28;20052;-25
2023/01/12 04:48:03;;;;;;;3.35;2.50;;;17.60;70.60;;;;;;5074074;28;20051;-25
2023/01/12 04:50:29;;;;;;;2.90;2.10;;;17.50;70.90;;;;;;5076179;28;20052;-24
2023/01/12 04:52:54;;;;;;;2.55;2.15;;;17.50;70.80;;;;;;5073676;28;20042;-24
2023/01/12 04:55:20;;;;;;;2.70;2.00;;;17.50;71.00;;;;;;5071819;28;20028;-26
2023/01/12 04:57:46;;;;;;;2.92;2.15;;;17.50;71.00;;;;;;5079880;28;20078;-24
2023/01/12 05:00:11;;;;;;;2.28;2.08;;;17.50;71.00;;;;;;5075371;28;20397;-28
2023/01/12 05:02:37;;;;;;;2.25;2.10;;;17.50;70.90;;;;;;5074999;28;20044;-24
2023/01/12 05:05:04;;;;;;;2.33;2.13;;;17.60;70.80;;;;;;5059662;28;20052;-28
2023/01/12 05:07:29;;;;;;;2.25;1.95;;;17.60;70.80;;;;;;5066727;28;20048;-24
2023/01/12 05:12:39;;;;;;;2.47;2.10;;;17.50;71.10;;;;;;5073704;28;20044;-25
2023/01/12 05:15:05;;;;;;;1.77;1.67;;;17.50;71.20;;;;;;5077624;28;20412;-24
2023/01/12 05:17:31;;;;;;;1.92;1.77;;;17.50;71.20;;;;;;5074009;28;20052;-28
2023/01/12 05:19:57;;;;;;;2.50;1.95;;;17.50;71.10;;;;;;5069678;28;20086;-26
2023/01/12 05:22:23;;;;;;;2.03;1.83;;;17.50;71.00;;;;;;5073065;28;20070;-25
2023/01/12 05:24:48;;;;;;;2.53;1.60;;;17.50;71.00;;;;;;5082451;28;20055;-24
2023/01/12 05:27:14;;;;;;;2.15;1.70;;;17.60;70.90;;;;;;5078292;28;20040;-24
2023/01/12 05:29:40;;;;;;;1.58;1.48;;;17.50;70.90;;;;;;5074895;28;20098;-24
2023/01/12 05:32:05;;;;;;;2.00;1.40;;;17.60;70.90;;;;;;5080471;28;20050;-29
2023/01/12 05:34:31;;;;;;;2.30;1.73;;;17.60;70.80;;;;;;5080396;28;20048;-24
2023/01/12 05:36:56;;;;;;;1.65;1.55;;;17.50;70.80;;;;;;5077868;28;20048;-25
2023/01/12 05:39:22;;;;;;;1.42;1.33;;;17.50;70.60;;;;;;5076218;28;20071;-26
2023/01/12 05:44:32;;;;;;;1.40;1.30;;;17.50;71.00;;;;;;5071817;28;20060;-28
2023/01/12 05:46:57;;;;;;;1.83;1.73;;;17.50;71.20;;;;;;5046726;28;20422;-26
2023/01/12 05:49:23;;;;;;;2.08;1.88;;;17.50;70.90;;;;;;5048050;28;20049;-25
2023/01/12 05:51:48;;;;;;;2.13;1.92;;;17.60;71.00;;;;;;5049037;28;20131;-32
2023/01/12 05:54:14;;;;;;;1.63;1.52;;;17.60;71.20;;;;;;5048539;28;20044;-25
2023/01/12 05:56:39;;;;;;;4.60;2.75;;;17.60;71.50;;;;;;5048591;28;20037;-25
2023/01/12 05:59:05;;;;;;;3.53;3.03;;;17.60;72.10;;;;;;5049427;28;20052;-26
2023/01/12 06:01:31;;;;;;;5.05;3.00;;;17.60;71.90;;;;;;5039959;28;20495;-24
2023/01/12 06:03:58;;;;;;;4.40;2.83;;;17.50;72.20;;;;;;5049631;28;20053;-27
2023/01/12 06:06:25;;;;;;;2.47;2.03;;;17.60;71.90;;;;;;5046176;28;20123;-24
2023/01/12 06:08:51;;;;;;;4.45;2.38;;;17.60;71.70;;;;;;5046263;28;20541;-29
2023/01/12 06:14:00;;;;;;;3.08;2.70;;;17.60;71.70;;;;;;5046302;28;20103;-28
2023/01/12 06:16:26;;;;;;;3.28;2.55;;;17.60;72.00;;;;;;5043947;28;20480;-26
2023/01/12 06:18:52;;;;;;;3.25;2.60;;;17.70;72.10;;;;;;5042993;28;20509;-25
2023/01/12 06:21:17;;;;;;;2.50;2.30;;;17.70;71.50;;;;;;5043927;28;20119;-24
2023/01/12 06:23:43;;;;;;;4.60;2.38;;;17.70;71.70;;;;;;5045887;28;20177;-24
2023/01/12 06:26:09;;;;;;;4.53;2.65;;;17.70;71.80;;;;;;5048269;28;20084;-23
2023/01/12 06:28:35;;;;;;;5.63;2.65;;;17.60;72.10;;;;;;5045914;28;20048;-26
2023/01/12 06:31:02;;;;;;;6.07;2.88;;;17.70;72.30;;;;;;5050489;28;20068;-27
2023/01/12 06:33:28;;;;;;;5.63;2.70;;;17.70;72.30;;;;;;5045949;28;20171;-30
2023/01/12 06:35:54;;;;;;;5.25;2.53;;;17.70;72.30;;;;;;5048795;28;20120;-24
2023/01/12 06:38:20;;;;;;;3.45;2.90;;;17.60;72.90;;;;;;5028830;28;20045;-24
2023/01/12 06:40:46;;;;;;;3.83;2.83;;;17.60;73.70;;;;;;5045760;28;20156;-25
2023/01/12 06:43:11;;;;;;;3.20;2.65;;;17.60;74.20;;;;;;5045848;28;20183;-28
2023/01/12 06:45:37;;;;;;;3.58;2.63;;;17.60;73.50;;;;;;5062996;28;20489;-28
2023/01/12 06:48:03;;;;;;;3.13;2.58;;;17.60;73.20;;;;;;5074132;28;20044;-24
2023/01/12 06:50:29;;;;;;;4.07;2.38;;;17.70;72.90;;;;;;5071730;28;20520;-25
2023/01/12 06:52:57;;;;;;;3.38;2.85;;;17.60;73.30;;;;;;5079785;28;20105;-24
2023/01/12 06:55:23;;;;;;;3.17;2.60;;;17.70;73.20;;;;;;5075649;28;20485;-23
2023/01/12 06:57:48;;;;;;;2.70;2.45;;;17.70;72.70;;;;;;5079463;28;20124;-24
2023/01/12 07:00:14;;;;;;;3.05;2.42;;;17.70;72.70;;;;;;5079338;28;20507;-24
2023/01/12 07:02:40;;;;;;;2.65;2.45;;;17.70;72.80;;;;;;5068681;28;20047;-26
2023/01/12 07:05:06;;;;;;;2.80;2.30;;;17.80;72.80;;;;;;5070511;28;20048;-25
2023/01/12 07:07:31;;;;;;;2.42;2.13;;;17.70;73.00;;;;;;5068315;28;20048;-24
2023/01/12 07:09:57;;;;;;;3.58;2.40;;;17.60;73.40;;;;;;5080987;28;20394;-24
2023/01/12 07:12:23;;;;;;;5.07;2.83;;;17.50;74.00;;;;;;5068816;28;20036;-24
2023/01/12 07:14:48;;;;;;;4.05;2.08;;;17.50;73.90;;;;;;5068540;28;20048;-23
2023/01/12 07:17:14;;;;;;;2.47;2.28;;;17.50;74.20;;;;;;5071714;28;20475;-30
2023/01/12 07:19:39;;;;;;;2.55;2.20;;;17.60;73.70;;;;;;5077338;28;20067;-35
2023/01/12 07:22:05;;;;;;;2.65;2.35;;;17.70;73.70;;;;;;5078723;28;20062;-28
2023/01/12 07:24:31;;;;;;;3.90;2.20;;;17.60;74.00;;;;;;5071358;28;20037;-25
2023/01/12 07:26:57;;;;;;;18.45;2.20;;;17.50;74.80;;;;;;5066425;28;20055;-24
2023/01/12 07:29:23;;;;;;;2.70;2.40;;;17.40;75.50;;;;;;5068483;28;20096;-23
2023/01/12 07:31:49;;;;;;;3.42;2.45;;;17.60;75.10;;;;;;5070639;28;20087;-23
2023/01/12 07:34:15;;;;;;;3.90;2.50;;;17.60;75.30;;;;;;5066525;28;20523;-25
2023/01/12 07:36:41;;;;;;;3.42;2.10;;;17.60;75.60;;;;;;5066661;28;20053;-24
2023/01/12 07:39:07;;;;;;;3.55;2.33;;;17.70;75.50;;;;;;5069546;28;20045;-27
2023/01/12 07:44:17;;;;;;;6.43;2.00;;;17.60;75.00;;;;;;5073141;28;20455;-22
2023/01/12 07:46:43;;;;;;;3.78;2.35;;;17.60;74.90;;;;;;5073936;28;20044;-24
2023/01/12 07:49:08;;;;;;;4.60;2.55;;;17.60;75.20;;;;;;5071686;28;20096;-24
2023/01/12 07:51:34;;;;;;;2.97;2.28;;;17.60;75.00;;;;;;5067507;28;20456;-26
2023/01/12 07:53:59;;;;;;;4.28;2.10;;;17.60;75.20;;;;;;5066498;28;20055;-23
2023/01/12 07:56:25;;;;;;;3.20;2.22;;;17.60;75.50;;;;;;5071576;28;21880;-26
2023/01/12 07:58:50;;;;;;;4.95;2.67;;;17.60;75.70;;;;;;5073605;28;20131;-23
2023/01/12 08:01:16;;;;;;;4.05;2.03;;;17.60;75.80;;;;;;5063575;28;20578;-24
2023/01/12 08:03:41;;;;;;;3.28;2.17;;;17.50;76.10;;;;;;5060627;28;20032;-23
2023/01/12 08:06:07;;;;;;;4.07;2.47;;;17.60;75.70;;;;;;5071000;28;20052;-24
2023/01/12 08:08:33;;;;;;;2.83;2.17;;;17.60;76.40;;;;;;5076806;28;20397;-24
2023/01/12 08:11:03;;;;;;;3.80;1.80;;;17.70;75.70;;;;;;5067510;28;20045;-24
2023/01/12 08:13:28;;;;;;;2.30;1.55;;;17.70;75.30;;;;;;5072273;28;20079;-24
2023/01/12 08:15:54;;;;;;;3.85;2.13;;;17.70;75.20;;;;;;5076148;28;20052;-23
2023/01/12 08:18:22;;;;;;;2.17;1.70;;;17.70;75.20;;;;;;5074967;28;20044;-22
2023/01/12 08:20:48;;;;;;;1.88;1.75;;;17.70;75.00;;;;;;5072798;28;20059;-23
2023/01/12 08:23:23;;;;;;;2.38;1.80;;;17.70;75.00;;;;;;5078877;28;20036;-24
2023/01/12 08:25:55;;;;;;;5.63;2.10;;;17.60;74.90;;;;;;5074350;28;20531;-23
2023/01/12 08:28:24;;;;;;;3.72;1.52;;;17.70;76.20;;;;;;5054297;28;20059;-21
2023/01/12 08:30:49;;;;;;;3.05;1.50;;;17.60;75.50;;;;;;5056237;28;20051;-23
2023/01/12 08:33:15;;;;;;;2.25;1.83;;;17.60;75.30;;;;;;5072864;28;20058;-29
2023/01/12 08:35:40;;;;;;;7.35;1.67;;;17.60;75.60;;;;;;5074352;28;20511;-24
2023/01/12 08:38:06;;;;;;;2.28;1.75;;;17.60;75.70;;;;;;5055463;28;20044;-23
2023/01/12 08:44:00;;;;;;;3.58;2.10;;;17.60;75.60;;;;;;5077261;28;20046;-25
2023/01/12 08:46:06;;;;;;;2.47;1.42;;;17.60;75.20;;;;;;5047265;28;20442;-29
2023/01/12 08:48:34;;;;;;;2.90;1.80;;;17.70;75.00;;;;;;5043957;28;20044;-25
2023/01/12 08:51:00;;;;;;;4.90;1.60;;;17.80;74.40;;;;;;5048043;28;20045;-24
2023/01/12 08:53:25;;;;;;;2.17;1.98;;;17.70;74.70;;;;;;5045379;28;20048;-22
2023/01/12 08:55:52;;;;;;;1.67;1.38;;;17.70;74.90;;;;;;5046427;28;20067;-24
2023/01/12 08:58:17;;;;;;;2.85;2.03;;;17.70;74.90;;;;;;5046083;28;20041;-24
2023/01/12 09:00:43;;;;;;;1.67;1.58;;;17.70;74.90;;;;;;5046828;28;20095;-32
2023/01/12 09:03:08;;;;;;;1.75;1.50;;;17.70;74.80;;;;;;5046840;28;20057;-25
2023/01/12 09:05:34;;;;;;;1.52;1.23;;;17.60;75.00;;;;;;5047227;28;20045;-27
2023/01/12 09:08:00;;;;;;;1.58;1.48;;;17.60;74.90;;;;;;5047084;28;20490;-26
2023/01/12 09:10:25;;;;;;;1.65;1.40;;;17.70;74.80;;;;;;5043859;28;20049;-23
2023/01/12 09:12:51;;;;;;;1.70;1.60;;;17.60;75.40;;;;;;5045240;28;20044;-28
2023/01/12 09:15:16;;;;;;;2.40;1.63;;;17.60;74.90;;;;;;5047012;28;20457;-32
2023/01/12 09:17:43;;;;;;;1.73;1.33;;;17.60;74.90;;;;;;5045972;28;20059;-23
2023/01/12 09:20:09;;;;;;;2.65;1.40;;;17.60;75.00;;;;;;5047458;28;20033;-23
2023/01/12 09:22:35;;;;;;;1.58;1.48;;;17.60;75.00;;;;;;5045110;28;20094;-23
2023/01/12 09:25:01;;;;;;;1.33;1.23;;;17.60;75.00;;;;;;5046601;28;20049;-24
2023/01/12 09:27:26;;;;;;;1.10;1.00;;;17.60;75.00;;;;;;5045003;28;20051;-26
2023/01/12 09:29:52;;;;;;;2.67;1.63;;;17.60;75.00;;;;;;5046749;28;20065;-25
2023/01/12 09:32:17;;;;;;;1.65;1.23;;;17.60;75.00;;;;;;5045523;28;20572;-26
2023/01/12 09:34:43;;;;;;;1.55;1.42;;;17.60;75.00;;;;;;5045403;28;20137;-24
2023/01/12 09:37:09;;;;;;;1.60;1.20;;;17.60;74.90;;;;;;5049897;28;20409;-27
2023/01/12 09:39:34;;;;;;;1.45;1.35;;;17.60;75.00;;;;;;5049992;28;20095;-24
2023/01/12 09:47:48;;;;;;;2.35;1.55;;;17.50;74.90;;;;;;5067494;28;20182;-27
2023/01/12 09:50:17;;;;;;;1.60;1.50;;;17.60;75.00;;;;;;5069740;28;20501;-24
2023/01/12 09:52:54;;;;;;;1.50;1.40;;;17.50;74.90;;;;;;5068195;28;20097;-27
2023/01/12 09:55:22;;;;;;;2.42;1.05;;;17.60;75.00;;;;;;5068497;28;20040;-25
2023/01/12 09:58:09;;;;;;;1.40;1.10;;;17.60;74.90;;;;;;5083964;28;20051;-30
2023/01/12 10:00:35;;;;;;;1.52;1.00;;;17.50;74.80;;;;;;5066013;28;20454;-25
2023/01/12 10:03:09;;;;;;;2.33;1.27;;;17.60;74.80;;;;;;5070048;28;20128;-25
2023/01/12 10:05:45;;;;;;;1.55;1.40;;;17.60;74.80;;;;;;5070424;28;20566;-24
2023/01/12 10:08:28;;;;;;;1.45;1.35;;;17.50;74.80;;;;;;5067438;28;20058;-23
2023/01/12 10:11:04;;;;;;;2.55;1.13;;;17.60;74.40;;;;;;5066138;28;20098;-30
2023/01/12 10:13:54;;;;;;;1.33;1.23;;;17.60;74.40;;;;;;5067186;28;20158;-22
2023/01/12 10:16:58;;;;;;;1.38;1.17;;;17.60;74.40;;;;;;5038439;28;20032;-24
2023/01/12 10:19:38;;;;;;;1.65;1.13;;;17.60;74.40;;;;;;5082439;28;20036;-23
2023/01/12 10:22:36;;;;;;;1.83;1.05;;;17.60;74.30;;;;;;5071700;28;20039;-26
2023/01/12 10:25:21;;;;;;;1.20;0.90;;;17.60;74.20;;;;;;5067744;28;20048;-24
2023/01/12 10:27:48;;;;;;;1.50;1.20;;;17.70;73.80;;;;;;5083420;28;20043;-24
2023/01/12 10:30:18;;;;;;;1.40;1.30;;;17.70;73.70;;;;;;5069241;28;20566;-24
2023/01/12 10:32:43;;;;;;;1.40;1.13;;;17.70;73.80;;;;;;5068484;28;20119;-23
2023/01/12 10:35:14;;;;;;;1.20;1.00;;;17.60;74.00;;;;;;5067080;28;20093;-26
2023/01/12 10:37:47;;;;;;;2.53;1.05;;;17.60;73.80;;;;;;5067355;28;20076;-24
2023/01/12 10:40:24;;;;;;;1.25;1.15;;;17.70;73.80;;;;;;5084022;28;20025;-24
2023/01/12 10:43:17;;;;;;;1.52;1.40;;;17.70;73.70;;;;;;5072243;28;20042;-24
2023/01/12 10:45:43;;;;;;;1.40;1.20;;;17.70;73.40;;;;;;5065076;28;20059;-23
2023/01/12 10:48:17;;;;;;;2.38;1.20;;;17.70;73.60;;;;;;5068529;28;20028;-26
2023/01/12 10:50:44;;;;;;;;;;;17.70;74.40;;;;;;5064413;28;20443;-24
2023/01/12 10:53:14;;;;;;;1.58;1.38;;;17.70;73.70;;;;;;5055701;28;20383;-23
2023/01/12 10:55:40;;;;;;;1.90;1.40;;;17.60;74.20;;;;;;5074993;28;20040;-24
2023/01/12 10:58:25;;;;;;;2.58;1.58;;;17.50;74.40;;;;;;5067473;28;20044;-23
2023/01/12 11:00:51;;;;;;;2.08;1.70;;;17.50;74.50;;;;;;5069962;28;20076;-23
2023/01/12 11:03:36;;;;;;;3.65;1.45;;;17.50;74.60;;;;;;5057601;28;20052;-23
2023/01/12 11:06:22;;;;;;;2.50;1.20;;;17.50;74.60;;;;;;5076610;28;20047;-24
2023/01/12 11:08:47;;;;;;;7.90;1.60;;;17.50;74.70;;;;;;5072614;28;20036;-23
2023/01/12 11:11:18;;;;;;;1.10;1.00;;;17.60;74.60;;;;;;5075458;28;20032;-23
2023/01/12 11:13:44;;;;;;;3.30;1.45;;;17.60;74.60;;;;;;5074704;28;20067;-24
2023/01/12 11:16:23;;;;;;;2.00;1.27;;;17.60;74.60;;;;;;5044496;28;20497;-24
2023/01/12 11:19:24;;;;;;;3.30;1.25;;;17.60;74.20;;;;;;5061109;28;20037;-23
2023/01/12 11:21:53;;;;;;;2.45;1.50;;;17.60;74.50;;;;;;5050259;28;20036;-28
2023/01/12 11:24:22;;;;;;;1.20;0.90;;;17.70;74.50;;;;;;5041886;28;20043;-24
2023/01/12 11:26:49;;;;;;;1.50;1.00;;;17.60;74.60;;;;;;5065456;28;20084;-24
2023/01/12 11:29:31;;;;;;;3.80;1.35;;;17.70;74.60;;;;;;5075605;28;20044;-28
2023/01/12 11:31:59;;;;;;;2.38;1.38;;;17.70;74.30;;;;;;5076481;28;20055;-27
2023/01/12 11:34:28;;;;;;;1.95;1.27;;;17.70;74.10;;;;;;5046867;28;20035;-23
2023/01/12 11:37:02;;;;;;;1.48;1.20;;;17.70;74.20;;;;;;5057741;28;20493;-26
2023/01/12 11:39:28;;;;;;;1.25;1.05;;;17.70;75.70;;;;;;5057200;28;20055;-23
2023/01/12 11:44:50;;;;;;;1.55;1.38;;;17.60;75.90;;;;;;5057601;28;20541;-24
2023/01/12 11:47:20;;;;;;;2.58;1.85;;;17.60;77.30;;;;;;5052095;28;20396;-27
2023/01/12 11:49:54;;;;;;;2.15;1.60;;;17.60;78.30;;;;;;5046196;28;20044;-25
2023/01/12 11:52:20;;;;;;;1.50;1.40;;;17.70;77.90;;;;;;5028607;28;20069;-24
2023/01/12 11:54:46;;;;;;;1.92;1.48;;;17.60;78.10;;;;;;5042906;28;20177;-31
2023/01/12 11:57:36;;;;;;;2.30;1.42;;;17.70;77.50;;;;;;5049376;28;20573;-35
2023/01/12 12:00:21;;;;;;;1.38;1.20;;;17.70;77.30;;;;;;5036781;28;20045;-24
2023/01/12 12:03:21;;;;;;;1.77;1.27;;;17.70;77.20;;;;;;5043052;28;20056;-24
2023/01/12 12:05:59;;;;;;;2.20;1.30;;;17.60;77.60;;;;;;5042250;28;20414;-25
2023/01/12 12:08:33;;;;;;;1.98;1.08;;;17.60;77.60;;;;;;5044142;28;20051;-24
2023/01/12 12:11:16;;;;;;;1.58;1.20;;;17.70;77.30;;;;;;5046011;28;20468;-25
2023/01/12 12:13:59;;;;;;;1.38;1.10;;;17.70;77.00;;;;;;5035428;28;20044;-24
2023/01/12 12:16:43;;;;;;;3.00;1.35;;;17.70;76.80;;;;;;5044491;28;20029;-23
2023/01/12 12:19:17;;;;;;;1.08;0.93;;;17.70;76.60;;;;;;5043754;28;20032;-27
2023/01/12 12:22:10;;;;;;;2.30;1.13;;;17.70;76.50;;;;;;5033420;28;20551;-24
2023/01/12 12:25:13;;;;;;;1.98;1.02;;;17.70;77.20;;;;;;5041163;28;20485;-26
2023/01/12 12:27:42;;;;;;;2.25;1.13;;;17.70;76.10;;;;;;5047388;28;20035;-23
2023/01/12 12:30:28;;;;;;;2.78;1.10;;;17.70;75.90;;;;;;5030097;28;20060;-25
2023/01/12 12:33:32;;;;;;;1.38;0.80;;;17.70;75.80;;;;;;5009179;28;20120;-26
2023/01/12 12:36:34;;;;;;;1.85;1.10;;;17.70;75.70;;;;;;5018233;28;20041;-25
2023/01/12 12:38:59;;;;;;;2.05;1.20;;;17.70;75.90;;;;;;4961448;28;20038;-32
2023/01/12 12:47:40;;;;;;;1.45;1.15;;;17.70;76.10;;;;;;5004503;28;20109;-31
2023/01/12 12:50:24;;;;;;;1.13;1.02;;;17.70;76.40;;;;;;5001078;28;20040;-24
2023/01/12 12:53:04;;;;;;;1.38;1.20;;;17.70;76.20;;;;;;5005996;28;20033;-25
2023/01/12 12:55:30;;;;;;;1.55;1.00;;;17.70;76.50;;;;;;4989454;28;20042;-24
2023/01/12 12:58:03;;;;;;;2.55;1.13;;;17.60;76.70;;;;;;4988707;28;20038;-25
2023/01/12 13:00:30;;;;;;;3.25;1.35;;;17.60;76.60;;;;;;4999884;28;20046;-23
2023/01/12 13:02:57;;;;;;;3.78;1.27;;;17.60;76.60;;;;;;5003964;28;20415;-10
2023/01/12 13:05:41;;;;;;;1.20;1.10;;;17.70;76.30;;;;;;5003063;28;20057;-17
2023/01/12 13:08:19;;;;;;;2.05;1.38;;;17.70;76.10;;;;;;4997556;28;20065;-10
2023/01/12 13:10:48;;;;;;;2.35;1.33;;;17.60;76.10;;;;;;4989233;28;20053;-11
2023/01/12 13:13:36;;;;;;;1.48;1.08;;;17.70;76.30;;;;;;5009335;28;20049;-11
2023/01/12 13:16:17;;;;;;;3.05;1.13;;;17.80;75.80;;;;;;5068109;28;20040;-10
2023/01/12 13:18:48;;;;;;;1.88;0.90;;;17.70;75.70;;;;;;5079760;28;20127;-10
2023/01/12 13:21:25;;;;;;;4.03;1.17;;;17.70;75.70;;;;;;5077068;28;20079;-11
2023/01/12 13:23:52;;;;;;;1.02;0.95;;;17.80;75.50;;;;;;5079597;28;20048;-10
2023/01/12 13:26:56;;;;;;;1.92;0.95;;;17.70;75.40;;;;;;5078589;28;20048;-17
2023/01/12 13:29:22;;;;;;;1.67;1.02;;;17.70;75.40;;;;;;5000450;28;20483;-11
2023/01/12 13:31:51;;;;;;;0.90;0.80;;;17.70;75.40;;;;;;4995134;28;20622;-11
2023/01/12 13:34:37;;;;;;;1.17;0.68;;;17.70;75.50;;;;;;5002630;28;20419;-12
2023/01/12 13:37:14;;;;;;;1.60;0.70;;;17.70;75.20;;;;;;5000913;28;20058;-11
2023/01/12 13:39:44;;;;;;;4.15;1.35;;;17.70;75.40;;;;;;4974271;28;20723;-11
2023/01/12 13:45:07;;;;;;;3.33;1.17;;;17.70;75.10;;;;;;4997115;28;20116;-12
2023/01/12 13:47:33;;;;;;;1.92;1.02;;;17.70;75.50;;;;;;4982086;28;20085;-10
2023/01/12 13:49:59;;;;;;;3.28;0.82;;;17.70;75.70;;;;;;4979861;28;20055;-14
2023/01/12 13:52:29;;;;;;;2.50;0.80;;;17.60;76.30;;;;;;4983884;28;20112;-10
2023/01/12 13:54:55;;;;;;;1.83;0.95;;;17.50;76.30;;;;;;4994969;28;20499;-10
2023/01/12 13:57:23;;;;;;;1.05;0.90;;;17.50;76.40;;;;;;4996628;28;20061;-10
2023/01/12 13:59:55;;;;;;;0.63;0.60;;;17.60;76.30;;;;;;4992942;28;20038;-14
2023/01/12 14:02:21;;;;;;;0.95;0.90;;;17.60;76.10;;;;;;5004917;28;20054;-11